sensor_id;sensor_type;location;lat;lon;timestamp;pressure;altitude;pressure_sealevel;temperature;humidity
72558;BME280;60583;50.094;8.748;2023-04-02T00:01:49;99631.75;;;9.43;100.00
72558;BME280;60583;50.094;8.748;2023-04-02T00:04:20;99627.63;;;9.47;99.06
72558;BME280;60583;50.094;8.748;2023-04-02T00:07:17;99643.38;;;9.55;98.87
72558;BME280;60583;50.094;8.748;2023-04-02T00:09:40;99642.56;;;9.61;97.54
72558;BME280;60583;50.094;8.748;2023-04-02T00:12:15;99623.78;;;9.43;97.99
72558;BME280;60583;50.094;8.748;2023-04-02T00:14:46;99629.69;;;9.45;97.95
72558;BME280;60583;50.094;8.748;2023-04-02T00:17:12;99659.75;;;9.58;97.71
72558;BME280;60583;50.094;8.748;2023-04-02T00:19:55;99629.09;;;9.43;97.55
72558;BME280;60583;50.094;8.748;2023-04-02T00:22:26;99661.00;;;9.56;97.77
72558;BME280;60583;50.094;8.748;2023-04-02T00:24:54;99663.84;;;9.61;97.43
72558;BME280;60583;50.094;8.748;2023-04-02T00:27:21;99672.38;;;9.76;96.58
72558;BME280;60583;50.094;8.748;2023-04-02T00:29:57;99670.41;;;9.58;96.83
72558;BME280;60583;50.094;8.748;2023-04-02T00:32:28;99668.31;;;9.67;96.85
72558;BME280;60583;50.094;8.748;2023-04-02T00:34:55;99669.59;;;9.58;97.55
72558;BME280;60583;50.094;8.748;2023-04-02T00:37:24;99665.72;;;9.54;96.82
72558;BME280;60583;50.094;8.748;2023-04-02T00:40:04;99684.47;;;9.72;96.03
72558;BME280;60583;50.094;8.748;2023-04-02T00:42:33;99657.09;;;9.52;96.57
72558;BME280;60583;50.094;8.748;2023-04-02T00:45:00;99683.91;;;9.63;96.81
72558;BME280;60583;50.094;8.748;2023-04-02T00:47:34;99663.84;;;9.54;96.57
72558;BME280;60583;50.094;8.748;2023-04-02T00:50:23;99698.63;;;9.66;96.83
72558;BME280;60583;50.094;8.748;2023-04-02T00:52:49;99684.31;;;9.60;97.25
72558;BME280;60583;50.094;8.748;2023-04-02T00:55:35;99687.19;;;9.59;97.57
72558;BME280;60583;50.094;8.748;2023-04-02T00:58:11;99675.72;;;9.52;97.73
72558;BME280;60583;50.094;8.748;2023-04-02T01:00:47;99681.88;;;9.59;97.53
72558;BME280;60583;50.094;8.748;2023-04-02T01:05:45;99683.72;;;9.58;96.76
72558;BME280;60583;50.094;8.748;2023-04-02T01:14:08;99699.06;;;9.56;97.88
72558;BME280;60583;50.094;8.748;2023-04-02T01:16:49;99706.03;;;9.51;97.95
72558;BME280;60583;50.094;8.748;2023-04-02T01:22:13;99715.03;;;9.50;97.74
72558;BME280;60583;50.094;8.748;2023-04-02T01:24:45;99702.78;;;9.49;97.81
72558;BME280;60583;50.094;8.748;2023-04-02T01:27:15;99714.03;;;9.51;97.73
72558;BME280;60583;50.094;8.748;2023-04-02T01:29:45;99716.09;;;9.49;97.77
72558;BME280;60583;50.094;8.748;2023-04-02T01:32:18;99696.66;;;9.22;98.87
72558;BME280;60583;50.094;8.748;2023-04-02T01:34:45;99715.06;;;9.43;98.36
72558;BME280;60583;50.094;8.748;2023-04-02T01:40:32;99717.34;;;9.33;99.53
72558;BME280;60583;50.094;8.748;2023-04-02T01:43:28;99719.59;;;9.30;98.81
72558;BME280;60583;50.094;8.748;2023-04-02T01:45:57;99724.91;;;9.30;99.39
72558;BME280;60583;50.094;8.748;2023-04-02T01:48:25;99736.78;;;9.34;98.99
72558;BME280;60583;50.094;8.748;2023-04-02T01:50:55;99745.34;;;9.42;98.97
72558;BME280;60583;50.094;8.748;2023-04-02T01:53:24;99738.81;;;9.32;99.30
72558;BME280;60583;50.094;8.748;2023-04-02T01:55:59;99711.63;;;9.04;99.90
72558;BME280;60583;50.094;8.748;2023-04-02T01:58:28;99737.59;;;9.28;99.86
72558;BME280;60583;50.094;8.748;2023-04-02T02:03:25;99737.59;;;9.28;99.69
72558;BME280;60583;50.094;8.748;2023-04-02T02:05:51;99720.03;;;9.14;99.35
72558;BME280;60583;50.094;8.748;2023-04-02T02:08:28;99737.81;;;9.20;100.00
72558;BME280;60583;50.094;8.748;2023-04-02T02:10:55;99742.72;;;9.23;100.00
72558;BME280;60583;50.094;8.748;2023-04-02T02:13:21;99725.13;;;9.15;99.39
72558;BME280;60583;50.094;8.748;2023-04-02T02:15:47;99749.25;;;9.33;99.12
72558;BME280;60583;50.094;8.748;2023-04-02T02:18:16;99759.09;;;9.33;99.46
72558;BME280;60583;50.094;8.748;2023-04-02T02:20:44;99756.41;;;9.39;98.34
72558;BME280;60583;50.094;8.748;2023-04-02T02:23:10;99757.22;;;9.40;98.45
72558;BME280;60583;50.094;8.748;2023-04-02T02:25:37;99749.88;;;9.35;98.32
72558;BME280;60583;50.094;8.748;2023-04-02T02:28:17;99759.69;;;9.35;98.32
72558;BME280;60583;50.094;8.748;2023-04-02T02:35:55;99780.75;;;9.43;98.15
72558;BME280;60583;50.094;8.748;2023-04-02T02:38:39;99779.75;;;9.37;98.18
72558;BME280;60583;50.094;8.748;2023-04-02T02:46:31;99788.34;;;9.33;98.10
72558;BME280;60583;50.094;8.748;2023-04-02T02:48:58;99791.63;;;9.41;97.64
72558;BME280;60583;50.094;8.748;2023-04-02T02:51:29;99788.75;;;9.30;97.92
72558;BME280;60583;50.094;8.748;2023-04-02T02:54:03;99776.91;;;9.26;97.91
72558;BME280;60583;50.094;8.748;2023-04-02T02:56:31;99782.63;;;9.23;97.63
72558;BME280;60583;50.094;8.748;2023-04-02T02:58:59;99782.22;;;9.26;97.26
72558;BME280;60583;50.094;8.748;2023-04-02T03:01:28;99809.22;;;9.36;98.12
72558;BME280;60583;50.094;8.748;2023-04-02T03:03:54;99774.44;;;9.11;97.87
72558;BME280;60583;50.094;8.748;2023-04-02T03:06:19;99819.47;;;9.39;97.99
72558;BME280;60583;50.094;8.748;2023-04-02T03:09:35;99810.84;;;9.30;97.87
72558;BME280;60583;50.094;8.748;2023-04-02T03:11:43;99811.28;;;9.34;97.83
72558;BME280;60583;50.094;8.748;2023-04-02T03:14:25;99807.97;;;9.32;97.74
72558;BME280;60583;50.094;8.748;2023-04-02T03:17:02;99828.25;;;9.33;98.29
72558;BME280;60583;50.094;8.748;2023-04-02T03:19:42;99831.72;;;9.40;97.60
72558;BME280;60583;50.094;8.748;2023-04-02T03:22:44;99834.19;;;9.48;96.64
72558;BME280;60583;50.094;8.748;2023-04-02T03:25:34;99835.81;;;9.42;97.08
72558;BME280;60583;50.094;8.748;2023-04-02T03:28:05;99811.66;;;9.24;96.68
72558;BME280;60583;50.094;8.748;2023-04-02T03:30:43;99794.50;;;9.14;96.77
72558;BME280;60583;50.094;8.748;2023-04-02T03:33:18;99854.25;;;9.37;97.24
72558;BME280;60583;50.094;8.748;2023-04-02T03:36:34;99846.28;;;9.44;96.07
72558;BME280;60583;50.094;8.748;2023-04-02T03:38:40;99857.94;;;9.49;96.21
72558;BME280;60583;50.094;8.748;2023-04-02T03:44:00;99869.81;;;9.47;96.02
72558;BME280;60583;50.094;8.748;2023-04-02T03:46:35;99873.09;;;9.49;95.13
72558;BME280;60583;50.094;8.748;2023-04-02T03:49:07;99876.56;;;9.43;95.70
72558;BME280;60583;50.094;8.748;2023-04-02T03:51:58;99884.97;;;9.46;95.98
72558;BME280;60583;50.094;8.748;2023-04-02T03:54:25;99867.97;;;9.41;95.31
72558;BME280;60583;50.094;8.748;2023-04-02T03:56:52;99880.84;;;9.57;95.52
72558;BME280;60583;50.094;8.748;2023-04-02T04:04:28;99896.03;;;9.63;95.61
72558;BME280;60583;50.094;8.748;2023-04-02T04:06:56;99859.56;;;9.31;95.30
72558;BME280;60583;50.094;8.748;2023-04-02T04:09:34;99900.53;;;9.56;95.11
72558;BME280;60583;50.094;8.748;2023-04-02T04:12:20;99900.50;;;9.49;95.67
72558;BME280;60583;50.094;8.748;2023-04-02T04:14:54;99902.97;;;9.51;95.52
72558;BME280;60583;50.094;8.748;2023-04-02T04:20:34;99895.81;;;9.45;95.87
72558;BME280;60583;50.094;8.748;2023-04-02T04:23:26;99894.75;;;9.39;96.26
72558;BME280;60583;50.094;8.748;2023-04-02T04:26:03;99929.81;;;9.56;95.85
72558;BME280;60583;50.094;8.748;2023-04-02T04:28:53;99913.59;;;9.44;96.03
72558;BME280;60583;50.094;8.748;2023-04-02T04:31:35;99932.88;;;9.53;96.17
72558;BME280;60583;50.094;8.748;2023-04-02T04:34:16;99923.03;;;9.47;96.00
72558;BME280;60583;50.094;8.748;2023-04-02T04:36:49;99936.97;;;9.55;95.96
72558;BME280;60583;50.094;8.748;2023-04-02T04:39:25;99917.13;;;9.51;95.66
72558;BME280;60583;50.094;8.748;2023-04-02T04:41:57;99938.19;;;9.59;95.44
72558;BME280;60583;50.094;8.748;2023-04-02T04:44:38;99955.00;;;9.67;95.79
72558;BME280;60583;50.094;8.748;2023-04-02T04:47:32;99954.56;;;9.70;95.66
72558;BME280;60583;50.094;8.748;2023-04-02T04:50:03;99961.34;;;9.72;95.34
72558;BME280;60583;50.094;8.748;2023-04-02T04:52:38;99971.59;;;9.75;95.65
72558;BME280;60583;50.094;8.748;2023-04-02T04:55:26;99974.66;;;9.66;95.51
72558;BME280;60583;50.094;8.748;2023-04-02T04:58:00;99949.84;;;9.52;95.07
72558;BME280;60583;50.094;8.748;2023-04-02T05:00:46;99979.16;;;9.65;95.71
72558;BME280;60583;50.094;8.748;2023-04-02T05:03:29;99986.53;;;9.63;96.06
72558;BME280;60583;50.094;8.748;2023-04-02T05:06:36;99992.25;;;9.60;96.34
72558;BME280;60583;50.094;8.748;2023-04-02T05:09:47;99997.78;;;9.58;96.13
72558;BME280;60583;50.094;8.748;2023-04-02T05:15:20;100006.59;;;9.66;96.06
72558;BME280;60583;50.094;8.748;2023-04-02T05:20:26;100014.59;;;9.66;96.07
72558;BME280;60583;50.094;8.748;2023-04-02T05:23:02;100010.69;;;9.68;96.07
72558;BME280;60583;50.094;8.748;2023-04-02T05:25:30;100010.28;;;9.58;96.33
72558;BME280;60583;50.094;8.748;2023-04-02T05:28:19;100016.44;;;9.65;96.51
72558;BME280;60583;50.094;8.748;2023-04-02T05:31:04;100019.91;;;9.72;96.17
72558;BME280;60583;50.094;8.748;2023-04-02T05:33:35;100021.56;;;9.73;95.79
72558;BME280;60583;50.094;8.748;2023-04-02T05:36:07;100020.91;;;9.64;95.76
72558;BME280;60583;50.094;8.748;2023-04-02T05:38:39;100034.88;;;9.73;95.34
72558;BME280;60583;50.094;8.748;2023-04-02T05:43:55;100018.25;;;9.64;95.68
72558;BME280;60583;50.094;8.748;2023-04-02T05:46:27;100046.75;;;9.77;95.66
72558;BME280;60583;50.094;8.748;2023-04-02T05:48:57;99961.06;;;9.28;96.06
72558;BME280;60583;50.094;8.748;2023-04-02T05:51:29;100052.94;;;9.84;95.88
72558;BME280;60583;50.094;8.748;2023-04-02T05:54:02;100056.81;;;9.82;96.11
72558;BME280;60583;50.094;8.748;2023-04-02T05:56:36;100065.03;;;9.87;95.91
72558;BME280;60583;50.094;8.748;2023-04-02T05:59:11;100061.31;;;9.81;95.23
72558;BME280;60583;50.094;8.748;2023-04-02T06:04:27;100044.09;;;9.77;94.82
72558;BME280;60583;50.094;8.748;2023-04-02T06:07:02;100022.78;;;9.64;95.21
72558;BME280;60583;50.094;8.748;2023-04-02T06:09:43;100080.81;;;10.01;95.21
72558;BME280;60583;50.094;8.748;2023-04-02T06:12:30;100085.13;;;10.02;94.65
72558;BME280;60583;50.094;8.748;2023-04-02T06:14:59;100098.25;;;10.04;95.61
72558;BME280;60583;50.094;8.748;2023-04-02T06:17:25;100087.78;;;10.02;95.47
72558;BME280;60583;50.094;8.748;2023-04-02T06:19:53;100065.03;;;9.87;96.01
72558;BME280;60583;50.094;8.748;2023-04-02T06:22:31;100095.97;;;10.07;95.88
72558;BME280;60583;50.094;8.748;2023-04-02T06:25:04;100107.72;;;10.13;96.04
72558;BME280;60583;50.094;8.748;2023-04-02T06:27:31;100119.81;;;10.15;95.36
72558;BME280;60583;50.094;8.748;2023-04-02T06:30:04;100111.19;;;10.13;96.41
72558;BME280;60583;50.094;8.748;2023-04-02T06:32:31;100113.22;;;10.11;95.71
72558;BME280;60583;50.094;8.748;2023-04-02T06:34:57;100124.06;;;10.03;96.51
72558;BME280;60583;50.094;8.748;2023-04-02T06:37:31;100131.59;;;9.87;98.24
72558;BME280;60583;50.094;8.748;2023-04-02T06:39:58;100128.06;;;9.80;98.43
72558;BME280;60583;50.094;8.748;2023-04-02T06:42:32;100144.44;;;9.70;95.94
72558;BME280;60583;50.094;8.748;2023-04-02T06:44:59;100157.66;;;9.50;95.65
72558;BME280;60583;50.094;8.748;2023-04-02T06:47:38;100159.25;;;9.38;95.71
72558;BME280;60583;50.094;8.748;2023-04-02T06:50:26;100158.78;;;9.35;96.27
72558;BME280;60583;50.094;8.748;2023-04-02T06:52:58;100175.09;;;9.19;96.80
72558;BME280;60583;50.094;8.748;2023-04-02T06:55:33;100174.63;;;9.15;97.35
72558;BME280;60583;50.094;8.748;2023-04-02T06:58:01;100175.75;;;8.99;97.28
72558;BME280;60583;50.094;8.748;2023-04-02T07:00:36;100193.00;;;8.82;97.32
72558;BME280;60583;50.094;8.748;2023-04-02T07:03:06;100168.34;;;8.67;98.16
72558;BME280;60583;50.094;8.748;2023-04-02T07:05:31;100211.94;;;8.73;99.02
72558;BME280;60583;50.094;8.748;2023-04-02T07:07:57;100184.16;;;8.54;99.79
72558;BME280;60583;50.094;8.748;2023-04-02T07:10:22;100212.50;;;8.47;99.06
72558;BME280;60583;50.094;8.748;2023-04-02T07:12:48;100209.59;;;8.42;98.79
72558;BME280;60583;50.094;8.748;2023-04-02T07:15:17;100229.28;;;8.48;98.03
72558;BME280;60583;50.094;8.748;2023-04-02T07:17:44;100205.47;;;8.04;97.26
72558;BME280;60583;50.094;8.748;2023-04-02T07:20:32;100256.06;;;8.31;97.58
72558;BME280;60583;50.094;8.748;2023-04-02T07:22:58;100215.78;;;8.13;96.75
72558;BME280;60583;50.094;8.748;2023-04-02T07:25:25;100243.16;;;8.14;95.57
72558;BME280;60583;50.094;8.748;2023-04-02T07:27:54;100253.63;;;8.15;96.16
72558;BME280;60583;50.094;8.748;2023-04-02T07:30:20;100240.88;;;8.11;97.90
72558;BME280;60583;50.094;8.748;2023-04-02T07:32:45;100267.34;;;8.19;97.45
72558;BME280;60583;50.094;8.748;2023-04-02T07:35:11;100264.50;;;8.20;97.99
72558;BME280;60583;50.094;8.748;2023-04-02T07:37:37;100279.97;;;8.31;97.36
72558;BME280;60583;50.094;8.748;2023-04-02T07:40:14;100257.75;;;8.18;96.64
72558;BME280;60583;50.094;8.748;2023-04-02T07:42:40;100297.19;;;8.21;96.43
72558;BME280;60583;50.094;8.748;2023-04-02T07:45:06;100293.66;;;7.85;97.88
72558;BME280;60583;50.094;8.748;2023-04-02T07:47:32;100295.94;;;7.88;97.20
72558;BME280;60583;50.094;8.748;2023-04-02T07:49:57;100318.16;;;8.01;97.32
72558;BME280;60583;50.094;8.748;2023-04-02T07:52:23;100321.28;;;8.05;96.78
72558;BME280;60583;50.094;8.748;2023-04-02T07:54:48;100333.81;;;8.11;96.27
72558;BME280;60583;50.094;8.748;2023-04-02T07:57:14;100312.59;;;7.82;96.40
72558;BME280;60583;50.094;8.748;2023-04-02T07:59:39;100321.66;;;7.72;95.00
72558;BME280;60583;50.094;8.748;2023-04-02T08:02:05;100350.84;;;7.87;96.45
72558;BME280;60583;50.094;8.748;2023-04-02T08:04:30;100340.25;;;7.72;96.33
72558;BME280;60583;50.094;8.748;2023-04-02T08:06:56;100354.06;;;7.83;97.21
72558;BME280;60583;50.094;8.748;2023-04-02T08:09:22;100366.16;;;8.00;97.03
72558;BME280;60583;50.094;8.748;2023-04-02T08:11:47;100360.75;;;8.08;96.49
72558;BME280;60583;50.094;8.748;2023-04-02T08:14:13;100334.47;;;7.84;95.70
72558;BME280;60583;50.094;8.748;2023-04-02T08:16:46;100384.81;;;8.06;96.04
72558;BME280;60583;50.094;8.748;2023-04-02T08:19:12;100390.69;;;8.16;97.08
72558;BME280;60583;50.094;8.748;2023-04-02T08:21:37;100384.47;;;8.09;97.71
72558;BME280;60583;50.094;8.748;2023-04-02T08:24:03;100384.09;;;7.98;96.49
72558;BME280;60583;50.094;8.748;2023-04-02T08:26:28;100385.75;;;8.13;96.54
72558;BME280;60583;50.094;8.748;2023-04-02T08:28:54;100397.31;;;8.20;95.04
72558;BME280;60583;50.094;8.748;2023-04-02T08:31:19;100392.63;;;8.08;94.89
72558;BME280;60583;50.094;8.748;2023-04-02T08:33:45;100404.25;;;8.21;94.64
72558;BME280;60583;50.094;8.748;2023-04-02T08:36:15;100430.25;;;8.26;94.77
72558;BME280;60583;50.094;8.748;2023-04-02T08:38:41;100433.31;;;8.23;95.46
72558;BME280;60583;50.094;8.748;2023-04-02T08:41:09;100438.22;;;8.26;95.45
72558;BME280;60583;50.094;8.748;2023-04-02T08:46:47;100442.97;;;8.16;93.38
72558;BME280;60583;50.094;8.748;2023-04-02T08:49:18;100447.09;;;8.04;92.15
72558;BME280;60583;50.094;8.748;2023-04-02T08:51:47;100468.34;;;8.04;91.04
72558;BME280;60583;50.094;8.748;2023-04-02T08:54:18;100455.34;;;8.09;91.60
72558;BME280;60583;50.094;8.748;2023-04-02T08:59:35;100471.19;;;8.17;89.42
72558;BME280;60583;50.094;8.748;2023-04-02T09:04:50;100484.56;;;8.09;88.83
72558;BME280;60583;50.094;8.748;2023-04-02T09:07:16;100466.78;;;7.95;87.64
72558;BME280;60583;50.094;8.748;2023-04-02T09:09:42;100485.28;;;8.03;88.10
72558;BME280;60583;50.094;8.748;2023-04-02T09:12:24;100468.06;;;7.76;86.81
72558;BME280;60583;50.094;8.748;2023-04-02T09:15:10;100494.25;;;8.02;86.53
72558;BME280;60583;50.094;8.748;2023-04-02T09:17:42;100497.91;;;8.01;85.93
72558;BME280;60583;50.094;8.748;2023-04-02T09:20:18;100486.81;;;7.97;86.28
72558;BME280;60583;50.094;8.748;2023-04-02T09:22:47;100520.00;;;8.16;86.18
72558;BME280;60583;50.094;8.748;2023-04-02T09:25:21;100504.06;;;8.16;86.41
72558;BME280;60583;50.094;8.748;2023-04-02T09:27:49;100518.25;;;8.08;85.15
72558;BME280;60583;50.094;8.748;2023-04-02T09:32:58;100527.97;;;8.16;85.41
72558;BME280;60583;50.094;8.748;2023-04-02T09:35:28;100539.56;;;8.23;84.21
72558;BME280;60583;50.094;8.748;2023-04-02T09:40:34;100548.69;;;8.20;83.77
72558;BME280;60583;50.094;8.748;2023-04-02T09:43:15;100500.38;;;8.02;84.64
72558;BME280;60583;50.094;8.748;2023-04-02T09:45:42;100551.66;;;8.25;86.08
72558;BME280;60583;50.094;8.748;2023-04-02T09:48:35;100571.50;;;8.38;84.28
72558;BME280;60583;50.094;8.748;2023-04-02T09:51:04;100553.53;;;8.40;83.60
72558;BME280;60583;50.094;8.748;2023-04-02T09:53:36;100571.53;;;8.52;82.45
72558;BME280;60583;50.094;8.748;2023-04-02T09:56:09;100583.88;;;8.45;81.58
72558;BME280;60583;50.094;8.748;2023-04-02T09:58:35;100585.97;;;8.35;82.50
72558;BME280;60583;50.094;8.748;2023-04-02T10:01:00;100557.13;;;8.24;82.45
72558;BME280;60583;50.094;8.748;2023-04-02T10:03:29;100593.97;;;8.50;82.10
72558;BME280;60583;50.094;8.748;2023-04-02T10:06:13;100581.56;;;8.42;81.92
72558;BME280;60583;50.094;8.748;2023-04-02T10:08:41;100585.03;;;8.28;80.40
72558;BME280;60583;50.094;8.748;2023-04-02T10:11:10;100590.91;;;8.38;81.40
72558;BME280;60583;50.094;8.748;2023-04-02T10:13:45;100583.13;;;8.37;80.06
72558;BME280;60583;50.094;8.748;2023-04-02T10:16:20;100609.28;;;8.62;81.24
72558;BME280;60583;50.094;8.748;2023-04-02T10:18:56;100601.00;;;8.43;79.44
72558;BME280;60583;50.094;8.748;2023-04-02T10:21:42;100604.84;;;8.40;79.71
72558;BME280;60583;50.094;8.748;2023-04-02T10:24:13;100626.34;;;8.53;78.90
72558;BME280;60583;50.094;8.748;2023-04-02T10:32:10;100652.72;;;8.55;78.92
72558;BME280;60583;50.094;8.748;2023-04-02T10:34:48;100643.91;;;8.54;79.50
72558;BME280;60583;50.094;8.748;2023-04-02T10:39:57;100665.03;;;8.33;77.54
72558;BME280;60583;50.094;8.748;2023-04-02T10:42:30;100666.91;;;8.47;77.62
72558;BME280;60583;50.094;8.748;2023-04-02T10:45:31;100664.66;;;8.36;77.78
72558;BME280;60583;50.094;8.748;2023-04-02T10:48:09;100613.53;;;8.03;77.81
72558;BME280;60583;50.094;8.748;2023-04-02T10:53:17;100670.97;;;8.35;77.83
72558;BME280;60583;50.094;8.748;2023-04-02T10:55:48;100657.50;;;8.06;76.03
72558;BME280;60583;50.094;8.748;2023-04-02T10:58:23;100689.09;;;8.23;77.63
72558;BME280;60583;50.094;8.748;2023-04-02T11:00:54;100694.53;;;8.38;77.62
72558;BME280;60583;50.094;8.748;2023-04-02T11:03:31;100690.47;;;8.50;77.96
72558;BME280;60583;50.094;8.748;2023-04-02T11:06:04;100693.13;;;8.27;77.49
72558;BME280;60583;50.094;8.748;2023-04-02T11:08:43;100698.09;;;8.22;77.34
72558;BME280;60583;50.094;8.748;2023-04-02T11:11:12;100697.19;;;8.38;77.52
72558;BME280;60583;50.094;8.748;2023-04-02T11:13:56;100716.84;;;8.29;76.43
72558;BME280;60583;50.094;8.748;2023-04-02T11:16:23;100709.72;;;7.91;75.33
72558;BME280;60583;50.094;8.748;2023-04-02T11:24:24;100718.34;;;7.93;76.65
72558;BME280;60583;50.094;8.748;2023-04-02T11:26:51;100735.56;;;7.97;76.93
72558;BME280;60583;50.094;8.748;2023-04-02T11:29:26;100744.81;;;8.09;76.03
72558;BME280;60583;50.094;8.748;2023-04-02T11:32:13;100748.78;;;8.13;76.43
72558;BME280;60583;50.094;8.748;2023-04-02T11:37:10;100757.03;;;7.87;76.56
72558;BME280;60583;50.094;8.748;2023-04-02T11:39:54;100757.47;;;7.99;76.98
72558;BME280;60583;50.094;8.748;2023-04-02T11:42:27;100715.31;;;7.65;76.40
72558;BME280;60583;50.094;8.748;2023-04-02T11:44:54;100752.56;;;7.88;76.94
72558;BME280;60583;50.094;8.748;2023-04-02T11:47:28;100767.81;;;7.86;75.99
72558;BME280;60583;50.094;8.748;2023-04-02T11:54:59;100779.34;;;8.01;76.34
72558;BME280;60583;50.094;8.748;2023-04-02T12:03:23;100784.34;;;7.96;73.18
72558;BME280;60583;50.094;8.748;2023-04-02T12:06:02;100775.09;;;7.92;74.25
72558;BME280;60583;50.094;8.748;2023-04-02T12:11:31;100813.81;;;8.25;73.55
72558;BME280;60583;50.094;8.748;2023-04-02T12:13:58;100804.56;;;8.13;73.96
72558;BME280;60583;50.094;8.748;2023-04-02T12:16:24;100814.63;;;8.25;74.83
72558;BME280;60583;50.094;8.748;2023-04-02T12:18:55;100811.50;;;8.30;73.53
72558;BME280;60583;50.094;8.748;2023-04-02T12:21:25;100817.63;;;8.30;73.73
72558;BME280;60583;50.094;8.748;2023-04-02T12:23:54;100830.56;;;8.25;73.02
72558;BME280;60583;50.094;8.748;2023-04-02T12:26:28;100834.22;;;8.32;73.86
72558;BME280;60583;50.094;8.748;2023-04-02T12:29:13;100816.53;;;8.01;73.09
72558;BME280;60583;50.094;8.748;2023-04-02T12:31:45;100842.59;;;8.05;74.70
72558;BME280;60583;50.094;8.748;2023-04-02T12:34:17;100848.09;;;7.96;74.12
72558;BME280;60583;50.094;8.748;2023-04-02T12:37:03;100822.69;;;7.93;74.78
72558;BME280;60583;50.094;8.748;2023-04-02T12:39:33;100842.75;;;8.04;74.15
72558;BME280;60583;50.094;8.748;2023-04-02T12:42:00;100864.41;;;7.85;73.71
72558;BME280;60583;50.094;8.748;2023-04-02T12:44:28;100840.19;;;7.71;74.57
72558;BME280;60583;50.094;8.748;2023-04-02T12:46:54;100862.06;;;7.73;74.46
72558;BME280;60583;50.094;8.748;2023-04-02T12:49:29;100878.66;;;7.76;74.10
72558;BME280;60583;50.094;8.748;2023-04-02T12:51:56;100877.03;;;7.66;73.93
72558;BME280;60583;50.094;8.748;2023-04-02T12:54:22;100875.72;;;7.54;74.77
72558;BME280;60583;50.094;8.748;2023-04-02T12:56:49;100879.34;;;7.45;74.52
72558;BME280;60583;50.094;8.748;2023-04-02T12:59:29;100823.97;;;7.18;75.21
72558;BME280;60583;50.094;8.748;2023-04-02T13:01:58;100857.81;;;7.32;74.78
72558;BME280;60583;50.094;8.748;2023-04-02T13:04:24;100876.22;;;7.50;75.74
72558;BME280;60583;50.094;8.748;2023-04-02T13:06:51;100823.97;;;7.18;74.61
72558;BME280;60583;50.094;8.748;2023-04-02T13:09:29;100865.41;;;7.43;75.33
72558;BME280;60583;50.094;8.748;2023-04-02T13:11:55;100887.63;;;7.50;76.27
72558;BME280;60583;50.094;8.748;2023-04-02T13:14:23;100891.28;;;7.82;75.72
72558;BME280;60583;50.094;8.748;2023-04-02T13:16:49;100883.34;;;7.57;75.34
72558;BME280;60583;50.094;8.748;2023-04-02T13:19:24;100892.94;;;7.58;74.96
72558;BME280;60583;50.094;8.748;2023-04-02T13:21:50;100901.06;;;7.73;75.84
72558;BME280;60583;50.094;8.748;2023-04-02T13:24:31;100901.56;;;7.68;75.05
72558;BME280;60583;50.094;8.748;2023-04-02T13:27:01;100866.44;;;7.34;73.97
72558;BME280;60583;50.094;8.748;2023-04-02T13:29:28;100920.81;;;7.54;74.59
72558;BME280;60583;50.094;8.748;2023-04-02T13:32:00;100918.47;;;7.43;73.98
72558;BME280;60583;50.094;8.748;2023-04-02T13:34:26;100924.66;;;7.60;73.68
72558;BME280;60583;50.094;8.748;2023-04-02T13:36:52;100919.84;;;7.47;74.12
72558;BME280;60583;50.094;8.748;2023-04-02T13:39:18;100915.19;;;7.49;74.35
72558;BME280;60583;50.094;8.748;2023-04-02T13:41:56;100925.94;;;7.56;74.83
72558;BME280;60583;50.094;8.748;2023-04-02T13:44:24;100925.94;;;7.48;73.91
72558;BME280;60583;50.094;8.748;2023-04-02T13:46:52;100933.91;;;7.48;74.17
72558;BME280;60583;50.094;8.748;2023-04-02T13:49:18;100924.47;;;7.37;74.51
72558;BME280;60583;50.094;8.748;2023-04-02T13:51:51;100878.97;;;7.00;74.58
72558;BME280;60583;50.094;8.748;2023-04-02T13:54:27;100913.16;;;7.35;74.85
72558;BME280;60583;50.094;8.748;2023-04-02T13:56:56;100926.09;;;7.38;75.28
72558;BME280;60583;50.094;8.748;2023-04-02T13:59:23;100947.84;;;7.42;74.28
72558;BME280;60583;50.094;8.748;2023-04-02T14:01:49;100883.97;;;7.03;73.94
72558;BME280;60583;50.094;8.748;2023-04-02T14:04:22;100946.66;;;7.28;74.37
72558;BME280;60583;50.094;8.748;2023-04-02T14:12:51;100972.63;;;7.08;72.66
72558;BME280;60583;50.094;8.748;2023-04-02T14:15:47;100965.50;;;7.01;73.03
72558;BME280;60583;50.094;8.748;2023-04-02T14:18:38;100983.41;;;7.07;71.99
72558;BME280;60583;50.094;8.748;2023-04-02T14:24:20;100971.28;;;6.96;72.62
72558;BME280;60583;50.094;8.748;2023-04-02T14:30:07;100997.13;;;6.94;72.70
72558;BME280;60583;50.094;8.748;2023-04-02T14:33:36;101002.88;;;6.82;73.17
72558;BME280;60583;50.094;8.748;2023-04-02T14:35:47;101006.16;;;6.76;74.34
72558;BME280;60583;50.094;8.748;2023-04-02T14:38:30;101000.69;;;6.77;73.92
72558;BME280;60583;50.094;8.748;2023-04-02T14:41:12;101009.09;;;6.73;74.34
72558;BME280;60583;50.094;8.748;2023-04-02T14:44:02;101017.97;;;6.89;74.35
72558;BME280;60583;50.094;8.748;2023-04-02T14:46:35;101016.50;;;6.95;73.82
72558;BME280;60583;50.094;8.748;2023-04-02T14:54:28;101035.16;;;6.85;72.64
72558;BME280;60583;50.094;8.748;2023-04-02T14:57:03;101034.78;;;6.72;73.59
72558;BME280;60583;50.094;8.748;2023-04-02T14:59:41;101040.28;;;6.79;72.37
72558;BME280;60583;50.094;8.748;2023-04-02T15:02:34;101046.09;;;6.82;72.31
72558;BME280;60583;50.094;8.748;2023-04-02T15:05:04;101054.31;;;6.46;72.47
72558;BME280;60583;50.094;8.748;2023-04-02T15:07:38;101049.59;;;6.31;72.77
72558;BME280;60583;50.094;8.748;2023-04-02T15:10:16;101067.38;;;6.39;72.58
72558;BME280;60583;50.094;8.748;2023-04-02T15:12:45;101028.81;;;6.19;72.35
72558;BME280;60583;50.094;8.748;2023-04-02T15:15:36;101070.31;;;6.36;72.21
72558;BME280;60583;50.094;8.748;2023-04-02T15:18:10;101071.75;;;6.30;72.73
72558;BME280;60583;50.094;8.748;2023-04-02T15:26:29;101078.75;;;6.31;72.05
72558;BME280;60583;50.094;8.748;2023-04-02T15:29:12;101065.50;;;6.31;72.32
72558;BME280;60583;50.094;8.748;2023-04-02T15:31:45;101085.59;;;6.24;71.53
72558;BME280;60583;50.094;8.748;2023-04-02T15:34:19;101043.59;;;6.04;72.25